createdAt,value
2018-06-22T00:01:15.386Z,63.40
2018-06-22T00:03:52.250Z,63.40
2018-06-22T00:06:28.941Z,63.40
2018-06-22T00:09:07.196Z,63.40
2018-06-22T00:11:43.453Z,63.50
2018-06-22T00:14:20.840Z,64.10
2018-06-22T00:16:58.333Z,64.10
2018-06-22T00:19:35.013Z,64.30
2018-06-22T00:22:11.806Z,64.30
2018-06-22T00:24:48.613Z,64.60
2018-06-22T00:27:26.490Z,64.70
2018-06-22T00:30:04.704Z,64.70
2018-06-22T00:32:41.013Z,64.80
2018-06-22T00:35:17.517Z,64.70
2018-06-22T00:37:55.037Z,64.90
2018-06-22T00:40:31.426Z,64.50
2018-06-22T00:43:09.592Z,64.90
2018-06-22T00:45:45.411Z,64.90
2018-06-22T00:50:58.397Z,65.20
2018-06-22T00:53:55.404Z,65.30
2018-06-22T00:56:31.981Z,65.60
2018-06-22T00:59:09.468Z,65.70
2018-06-22T01:01:45.756Z,65.40
2018-06-22T01:04:24.449Z,65.00
2018-06-22T01:07:01.137Z,65.20
2018-06-22T01:12:14.773Z,65.20
2018-06-22T01:14:51.697Z,65.20
2018-06-22T01:20:05.630Z,66.20
2018-06-22T01:22:43.645Z,66.10
2018-06-22T01:25:20.124Z,66.00
2018-06-22T01:27:56.374Z,65.80
2018-06-22T01:30:32.170Z,66.00
2018-06-22T01:35:45.161Z,66.40
2018-06-22T01:40:58.814Z,66.70
2018-06-22T01:46:14.389Z,66.40
2018-06-22T01:48:52.449Z,66.70
2018-06-22T01:51:28.997Z,66.50
2018-06-22T01:54:05.308Z,66.60
2018-06-22T01:56:43.292Z,66.20
2018-06-22T01:59:19.842Z,67.00
2018-06-22T02:01:57.881Z,66.40
2018-06-22T02:04:34.819Z,66.40
2018-06-22T02:07:11.036Z,66.70
2018-06-22T02:12:25.470Z,66.90
2018-06-22T02:15:04.294Z,67.00
2018-06-22T02:22:55.103Z,67.30
2018-06-22T02:28:11.776Z,67.10
2018-06-22T02:30:49.689Z,66.80
2018-06-22T02:33:27.399Z,67.30
2018-06-22T02:36:05.688Z,67.30
2018-06-22T02:43:57.717Z,68.10
2018-06-22T02:49:13.658Z,68.30
2018-06-22T02:51:50.728Z,68.40
2018-06-22T02:54:28.534Z,68.50
2018-06-22T02:59:42.687Z,68.30
2018-06-22T03:02:19.640Z,67.80
2018-06-22T03:04:56.244Z,67.90
2018-06-22T03:07:32.822Z,67.80
2018-06-22T03:10:09.807Z,67.90
2018-06-22T03:12:47.581Z,68.30
2018-06-22T03:15:24.563Z,68.70
2018-06-22T03:18:02.782Z,69.40
2018-06-22T03:20:40.007Z,69.20
2018-06-22T03:25:54.429Z,71.50
2018-06-22T03:28:32.837Z,69.50
2018-06-22T03:31:11.851Z,69.80
2018-06-22T03:33:50.152Z,69.70
2018-06-22T03:36:26.273Z,69.40
2018-06-22T03:39:03.604Z,69.70
2018-06-22T03:41:41.100Z,69.60
2018-06-22T03:44:17.316Z,69.30
2018-06-22T03:46:54.662Z,69.60
2018-06-22T03:49:31.421Z,69.50
2018-06-22T03:52:09.263Z,69.60
2018-06-22T03:54:47.212Z,69.80
2018-06-22T03:57:23.913Z,70.10
2018-06-22T04:00:02.756Z,70.40
2018-06-22T04:02:39.416Z,70.70
2018-06-22T04:05:16.451Z,70.70
2018-06-22T04:07:53.540Z,70.60
2018-06-22T04:10:29.834Z,70.60
2018-06-22T04:15:43.150Z,70.70
2018-06-22T04:18:20.349Z,70.40
2018-06-22T04:20:58.626Z,70.30
2018-06-22T04:23:35.962Z,70.30
2018-06-22T04:26:12.290Z,70.00
2018-06-22T04:28:48.797Z,70.40
2018-06-22T04:31:25.454Z,70.10
2018-06-22T04:34:03.760Z,69.60
2018-06-22T04:39:17.241Z,68.90
2018-06-22T04:41:54.217Z,69.20
2018-06-22T04:44:31.109Z,69.10
2018-06-22T04:47:08.541Z,68.60
2018-06-22T04:49:45.134Z,69.00
2018-06-22T04:52:22.372Z,68.50
2018-06-22T04:54:59.012Z,68.80
2018-06-22T04:57:35.705Z,68.30
2018-06-22T05:02:50.665Z,68.10
2018-06-22T05:05:28.632Z,67.50
2018-06-22T05:08:06.734Z,66.90
2018-06-22T05:10:44.557Z,65.70
2018-06-22T05:13:21.872Z,65.30
2018-06-22T05:16:00.015Z,64.40
2018-06-22T05:18:36.997Z,64.20
2018-06-22T05:21:14.069Z,64.00
2018-06-22T05:23:51.837Z,64.90
2018-06-22T05:26:29.021Z,64.90
2018-06-22T05:29:05.028Z,63.80
2018-06-22T05:31:42.310Z,63.80
2018-06-22T05:34:18.941Z,63.80
2018-06-22T05:36:55.647Z,63.80
2018-06-22T05:39:32.605Z,63.10
2018-06-22T05:42:10.214Z,64.20
2018-06-22T05:47:23.462Z,64.00
2018-06-22T05:50:00.036Z,64.60
2018-06-22T05:52:36.271Z,64.00
2018-06-22T05:55:13.887Z,63.80
2018-06-22T05:57:50.789Z,64.40
2018-06-22T06:00:29.402Z,63.40
2018-06-22T06:03:06.911Z,63.20
2018-06-22T06:08:21.503Z,63.10
2018-06-22T06:10:58.036Z,61.80
2018-06-22T06:13:34.813Z,61.20
2018-06-22T06:16:11.218Z,60.80
2018-06-22T06:18:49.317Z,60.90
2018-06-22T06:21:27.041Z,61.80
2018-06-22T06:26:41.541Z,61.90
2018-06-22T06:31:56.256Z,61.80
2018-06-22T06:34:34.277Z,61.10
2018-06-22T06:37:11.866Z,60.80
2018-06-22T06:39:49.937Z,60.40
2018-06-22T06:42:26.381Z,60.10
2018-06-22T06:45:03.050Z,60.10
2018-06-22T06:47:39.260Z,60.70
2018-06-22T06:50:17.578Z,60.50
2018-06-22T06:52:54.399Z,59.60
2018-06-22T06:55:31.520Z,60.60
2018-06-22T06:58:08.384Z,60.00
2018-06-22T07:00:46.426Z,59.50
2018-06-22T07:03:23.553Z,59.80
2018-06-22T07:06:00.250Z,59.00
2018-06-22T07:08:37.432Z,58.70
2018-06-22T07:11:14.833Z,57.80
2018-06-22T07:13:52.592Z,58.00
2018-06-22T07:16:30.099Z,57.00
2018-06-22T07:19:06.330Z,57.50
2018-06-22T07:21:43.429Z,58.70
2018-06-22T07:24:20.949Z,57.30
2018-06-22T07:26:58.862Z,56.90
2018-06-22T07:29:36.193Z,57.80
2018-06-22T07:32:13.836Z,58.20
2018-06-22T07:34:52.085Z,57.60
2018-06-22T07:37:29.448Z,59.40
2018-06-22T07:40:05.845Z,57.70
2018-06-22T07:42:42.882Z,58.60
2018-06-22T07:45:20.065Z,57.40
2018-06-22T07:47:57.529Z,57.20
2018-06-22T07:50:34.024Z,57.80
2018-06-22T07:53:10.030Z,57.50
2018-06-22T07:55:47.781Z,58.00
2018-06-22T07:58:24.141Z,58.10
2018-06-22T08:01:02.704Z,58.10
2018-06-22T08:03:39.016Z,57.50
2018-06-22T08:06:17.296Z,56.40
2018-06-22T08:08:54.262Z,55.90
2018-06-22T08:11:31.510Z,55.70
2018-06-22T08:14:07.987Z,55.40
2018-06-22T08:16:45.646Z,55.90
2018-06-22T08:19:22.736Z,56.20
2018-06-22T08:21:59.017Z,57.00
2018-06-22T08:24:35.347Z,57.60
2018-06-22T08:27:12.020Z,57.10
2018-06-22T08:29:49.489Z,57.00
2018-06-22T08:32:25.774Z,56.80
2018-06-22T08:35:02.558Z,57.10
2018-06-22T08:37:39.893Z,56.80
2018-06-22T08:40:17.341Z,56.40
2018-06-22T08:42:53.602Z,55.90
2018-06-22T08:45:31.061Z,54.20
2018-06-22T08:48:08.116Z,51.70
2018-06-22T08:50:46.341Z,49.40
2018-06-22T08:53:24.196Z,51.60
2018-06-22T08:56:01.414Z,52.10
2018-06-22T08:58:38.131Z,55.10
2018-06-22T09:01:16.168Z,56.90
2018-06-22T09:03:54.166Z,57.60
2018-06-22T09:06:31.351Z,57.20
2018-06-22T09:09:09.390Z,55.40
2018-06-22T09:11:46.581Z,54.60
2018-06-22T09:14:23.683Z,53.60
2018-06-22T09:17:01.014Z,54.80
2018-06-22T09:19:40.028Z,56.00
2018-06-22T09:22:17.820Z,60.40
2018-06-22T09:24:55.441Z,61.50
2018-06-22T09:27:33.650Z,64.60
2018-06-22T09:30:11.620Z,66.30
2018-06-22T09:32:49.313Z,67.10
2018-06-22T09:35:27.437Z,67.30
2018-06-22T09:38:04.524Z,67.30
2018-06-22T09:40:41.001Z,63.50
2018-06-22T09:43:18.372Z,58.00
2018-06-22T09:45:55.837Z,53.60
2018-06-22T09:48:33.886Z,51.80
2018-06-22T09:51:10.952Z,53.70
2018-06-22T09:53:48.770Z,50.20
2018-06-22T09:56:25.373Z,48.50
2018-06-22T09:59:02.330Z,47.50
2018-06-22T10:01:38.411Z,49.40
2018-06-22T10:04:15.598Z,49.40
2018-06-22T10:06:51.890Z,52.50
2018-06-22T10:09:29.146Z,55.70
2018-06-22T10:12:06.698Z,59.40
2018-06-22T10:14:43.484Z,59.50
2018-06-22T10:17:20.090Z,59.30
2018-06-22T10:19:56.257Z,56.90
2018-06-22T10:22:34.683Z,58.10
2018-06-22T10:25:12.925Z,60.20
2018-06-22T10:27:50.268Z,54.00
2018-06-22T10:30:28.181Z,51.70
2018-06-22T10:33:06.433Z,48.10
2018-06-22T10:35:44.431Z,47.50
2018-06-22T10:38:21.890Z,46.80
2018-06-22T10:40:59.060Z,47.80
2018-06-22T10:43:36.032Z,47.80
2018-06-22T10:46:13.881Z,44.30
2018-06-22T10:48:50.253Z,48.30
2018-06-22T10:51:26.923Z,50.90
2018-06-22T10:54:04.414Z,54.10
2018-06-22T10:56:42.542Z,55.70
2018-06-22T10:59:20.669Z,56.30
2018-06-22T11:01:59.266Z,56.20
2018-06-22T11:04:36.829Z,54.80
2018-06-22T11:07:14.346Z,54.70
2018-06-22T11:09:52.368Z,54.00
2018-06-22T11:12:29.795Z,51.90
2018-06-22T11:15:06.197Z,51.20
2018-06-22T11:20:20.508Z,53.40
2018-06-22T11:22:58.752Z,55.90
2018-06-22T11:25:35.720Z,57.90
2018-06-22T11:28:13.999Z,57.90
2018-06-22T11:30:51.303Z,59.10
2018-06-22T11:33:29.197Z,57.80
2018-06-22T11:36:07.155Z,57.10
2018-06-22T11:38:44.738Z,56.90
2018-06-22T11:41:27.785Z,55.40
2018-06-22T11:44:07.034Z,55.80
2018-06-22T11:46:44.436Z,54.50
2018-06-22T11:49:21.398Z,54.00
2018-06-22T11:51:57.923Z,52.70
2018-06-22T11:54:33.624Z,52.20
2018-06-22T11:57:11.821Z,51.00
2018-06-22T11:59:49.315Z,46.30
2018-06-22T12:02:27.185Z,46.60
2018-06-22T12:05:04.593Z,43.40
2018-06-22T12:07:41.183Z,44.60
2018-06-22T12:10:18.280Z,47.60
2018-06-22T12:12:56.610Z,46.50
2018-06-22T12:15:33.664Z,46.40
2018-06-22T12:18:10.659Z,46.50
2018-06-22T12:20:48.336Z,45.70
2018-06-22T12:23:26.139Z,42.30
2018-06-22T12:26:04.607Z,41.00
2018-06-22T12:28:41.871Z,41.80
2018-06-22T12:31:20.409Z,43.10
2018-06-22T12:33:58.646Z,44.00
2018-06-22T12:36:36.677Z,42.30
2018-06-22T12:39:14.514Z,42.90
2018-06-22T12:41:50.968Z,44.20
2018-06-22T12:44:28.689Z,47.70
2018-06-22T12:47:05.413Z,49.30
2018-06-22T12:49:42.446Z,47.70
2018-06-22T12:52:20.836Z,47.70
2018-06-22T12:54:57.310Z,46.90
2018-06-22T12:57:34.582Z,45.10
2018-06-22T13:00:12.867Z,44.00
2018-06-22T13:02:50.392Z,44.00
2018-06-22T13:05:26.384Z,44.60
2018-06-22T13:08:03.131Z,46.00
2018-06-22T13:10:40.991Z,47.20
2018-06-22T13:13:18.597Z,47.20
2018-06-22T13:15:56.010Z,46.60
2018-06-22T13:18:35.938Z,46.90
2018-06-22T13:21:13.009Z,44.20
2018-06-22T13:23:51.698Z,44.00
2018-06-22T13:29:06.312Z,49.00
2018-06-22T13:31:45.941Z,52.80
2018-06-22T13:34:25.756Z,59.60
2018-06-22T13:37:06.478Z,62.60
2018-06-22T13:39:45.755Z,64.10
2018-06-22T13:42:26.036Z,68.20
2018-06-22T13:45:03.642Z,65.30
2018-06-22T13:47:40.396Z,65.50
2018-06-22T13:50:16.767Z,64.10
2018-06-22T13:52:54.614Z,65.10
2018-06-22T13:55:32.223Z,62.50
2018-06-22T13:58:08.233Z,61.60
2018-06-22T14:00:46.130Z,55.60
2018-06-22T14:03:23.642Z,55.70
2018-06-22T14:06:07.370Z,58.30
2018-06-22T14:08:43.815Z,56.20
2018-06-22T14:11:21.236Z,56.20
2018-06-22T14:13:57.935Z,56.00
2018-06-22T14:16:35.396Z,56.10
2018-06-22T14:19:13.184Z,55.90
2018-06-22T14:21:51.174Z,53.40
2018-06-22T14:24:28.093Z,54.60
2018-06-22T14:27:06.035Z,54.30
2018-06-22T14:29:42.956Z,55.10
2018-06-22T14:32:20.461Z,54.30
2018-06-22T14:34:58.477Z,54.70
2018-06-22T14:37:37.882Z,54.90
2018-06-22T14:40:16.753Z,55.60
2018-06-22T14:42:54.238Z,52.90
2018-06-22T14:45:32.266Z,49.40
2018-06-22T14:48:09.829Z,50.70
2018-06-22T14:50:49.228Z,48.20
2018-06-22T14:53:33.012Z,48.00
2018-06-22T14:56:16.893Z,47.40
2018-06-22T14:59:00.582Z,49.00
2018-06-22T15:01:42.766Z,49.70
2018-06-22T15:04:25.080Z,50.90
2018-06-22T15:07:07.108Z,52.50
2018-06-22T15:09:45.599Z,52.50
2018-06-22T15:12:22.783Z,52.30
2018-06-22T15:15:00.514Z,52.50
2018-06-22T15:17:41.734Z,56.30
2018-06-22T15:20:21.419Z,61.20
2018-06-22T15:22:58.933Z,63.00
2018-06-22T15:25:36.310Z,64.60
2018-06-22T15:28:13.210Z,65.50
2018-06-22T15:30:50.586Z,62.80
2018-06-22T15:33:33.533Z,59.60
2018-06-22T15:36:18.301Z,62.20
2018-06-22T15:39:00.078Z,58.10
2018-06-22T15:41:41.882Z,61.70
2018-06-22T15:44:24.704Z,59.50
2018-06-22T15:47:07.456Z,59.00
2018-06-22T15:49:49.219Z,60.50
2018-06-22T15:52:32.692Z,61.30
2018-06-22T15:55:11.608Z,59.00
2018-06-22T15:57:49.415Z,59.00
2018-06-22T16:00:26.263Z,59.10
2018-06-22T16:03:10.027Z,59.20
2018-06-22T16:05:47.769Z,60.40
2018-06-22T16:08:26.001Z,59.90
2018-06-22T16:11:03.102Z,59.30
2018-06-22T16:13:45.897Z,59.80
2018-06-22T16:16:28.971Z,58.20
2018-06-22T16:19:12.761Z,59.20
2018-06-22T16:21:55.700Z,61.10
2018-06-22T16:26:47.696Z,64.70
2018-06-22T16:29:24.815Z,68.40
2018-06-22T16:32:04.350Z,65.00
2018-06-22T16:34:43.820Z,66.80
2018-06-22T16:37:22.448Z,66.80
2018-06-22T16:39:59.614Z,66.10
2018-06-22T16:42:37.352Z,62.30
2018-06-22T16:45:14.066Z,60.40
2018-06-22T16:47:53.419Z,62.10
2018-06-22T16:55:45.846Z,68.30
2018-06-22T16:58:29.214Z,68.50
2018-06-22T17:01:10.041Z,69.10
2018-06-22T17:03:47.482Z,68.10
2018-06-22T17:06:26.021Z,70.10
2018-06-22T17:09:08.734Z,69.00
2018-06-22T17:11:54.135Z,64.70
2018-06-22T17:14:37.147Z,65.80
2018-06-22T17:17:21.062Z,67.80
2018-06-22T17:19:58.249Z,68.50
2018-06-22T17:22:36.013Z,72.90
2018-06-22T17:25:13.304Z,76.40
2018-06-22T17:27:50.880Z,80.40
2018-06-22T17:30:29.269Z,81.40
2018-06-22T17:33:07.654Z,81.50
2018-06-22T17:35:44.922Z,81.60
2018-06-22T17:38:21.309Z,81.70
2018-06-22T17:41:00.653Z,82.10
2018-06-22T17:43:40.590Z,84.50
2018-06-22T17:46:18.666Z,81.60
2018-06-22T17:48:56.424Z,83.60
2018-06-22T17:51:35.809Z,81.30
2018-06-22T17:54:12.510Z,81.30
2018-06-22T17:56:49.389Z,75.90
2018-06-22T17:59:33.423Z,80.80
2018-06-22T18:02:15.307Z,82.10
2018-06-22T18:05:57.753Z,78.00
2018-06-22T18:08:39.791Z,79.90
2018-06-22T18:11:22.882Z,79.20
2018-06-22T18:13:59.842Z,78.80
2018-06-22T18:19:12.918Z,79.10
2018-06-22T18:21:51.524Z,79.00
2018-06-22T18:24:28.086Z,80.40
2018-06-22T18:27:06.310Z,82.40
2018-06-22T18:29:43.291Z,83.60
2018-06-22T18:32:21.733Z,84.20
2018-06-22T18:35:00.110Z,84.40
2018-06-22T18:37:38.033Z,85.90
2018-06-22T18:40:16.545Z,85.30
2018-06-22T18:42:53.475Z,86.70
2018-06-22T18:45:30.197Z,86.00
2018-06-22T18:48:07.673Z,85.70
2018-06-22T18:50:44.413Z,87.00
2018-06-22T18:53:26.737Z,88.30
2018-06-22T18:56:09.110Z,89.70
2018-06-22T18:58:50.521Z,87.60
2018-06-22T19:01:33.105Z,89.50
2018-06-22T19:04:09.992Z,88.30
2018-06-22T19:06:46.541Z,87.90
2018-06-22T19:09:23.261Z,88.90
2018-06-22T19:12:01.467Z,88.60
2018-06-22T19:14:38.443Z,88.20
2018-06-22T19:17:15.885Z,89.10
2018-06-22T19:19:52.647Z,88.30
2018-06-22T19:22:30.532Z,88.10
2018-06-22T19:25:08.230Z,88.80
2018-06-22T19:27:45.781Z,89.60
2018-06-22T19:33:00.312Z,89.30
2018-06-22T19:35:38.381Z,89.70
2018-06-22T19:38:15.916Z,89.80
2018-06-22T19:40:53.190Z,90.10
2018-06-22T19:43:35.383Z,89.50
2018-06-22T19:46:17.246Z,89.60
2018-06-22T19:49:00.974Z,89.60
2018-06-22T19:56:59.082Z,88.90
2018-06-22T19:59:38.161Z,89.80
2018-06-22T20:02:15.439Z,88.20
2018-06-22T20:04:52.143Z,88.70
2018-06-22T20:07:30.453Z,88.90
2018-06-22T20:10:08.042Z,88.80
2018-06-22T20:12:45.711Z,90.20
2018-06-22T20:15:24.850Z,90.20
2018-06-22T20:18:01.193Z,89.10
2018-06-22T20:20:40.197Z,89.70
2018-06-22T20:28:33.104Z,89.30
2018-06-22T20:33:52.350Z,88.10
2018-06-22T20:36:35.028Z,89.20
2018-06-22T20:39:17.552Z,88.20
2018-06-22T20:42:00.249Z,89.10
2018-06-22T20:44:44.296Z,87.80
2018-06-22T20:47:27.083Z,88.60
2018-06-22T20:50:11.009Z,88.20
2018-06-22T20:52:48.367Z,86.20
2018-06-22T20:58:04.340Z,87.50
2018-06-22T21:00:43.283Z,89.60
2018-06-22T21:03:19.657Z,89.10
2018-06-22T21:05:59.006Z,86.70
2018-06-22T21:08:35.482Z,88.10
2018-06-22T21:16:26.983Z,88.10
2018-06-22T21:19:04.419Z,87.20
2018-06-22T21:21:46.589Z,87.40
2018-06-22T21:27:06.502Z,88.00
2018-06-22T21:29:49.194Z,87.90
2018-06-22T21:35:15.994Z,88.40
2018-06-22T21:37:59.528Z,88.50
2018-06-22T21:43:14.906Z,87.60
2018-06-22T21:45:53.446Z,87.60
2018-06-22T21:48:30.532Z,88.00
2018-06-22T21:51:08.013Z,88.50
2018-06-22T21:53:44.183Z,87.50
2018-06-22T21:56:20.872Z,87.60
2018-06-22T21:58:58.260Z,88.10
2018-06-22T22:01:35.321Z,87.40
2018-06-22T22:04:12.671Z,88.00
2018-06-22T22:06:50.720Z,87.90
2018-06-22T22:09:32.782Z,88.70
2018-06-22T22:12:10.020Z,89.30
2018-06-22T22:14:46.958Z,88.30
2018-06-22T22:17:23.307Z,88.10
2018-06-22T22:20:00.100Z,87.40
2018-06-22T22:22:37.925Z,87.10
2018-06-22T22:25:16.187Z,87.40
2018-06-22T22:27:53.075Z,87.50
2018-06-22T22:30:30.392Z,88.00
2018-06-22T22:33:07.031Z,88.30
2018-06-22T22:38:21.331Z,88.00
2018-06-22T22:40:59.509Z,87.90
2018-06-22T22:43:36.446Z,88.20
2018-06-22T22:46:13.463Z,87.90
2018-06-22T22:48:50.007Z,88.10
2018-06-22T22:51:28.973Z,87.70
2018-06-22T22:54:06.093Z,88.70
2018-06-22T22:56:43.561Z,88.60
2018-06-22T22:59:20.250Z,88.30
2018-06-22T23:04:35.374Z,88.20
2018-06-22T23:07:12.780Z,87.70
2018-06-22T23:09:52.468Z,88.30
2018-06-22T23:12:32.127Z,88.80
2018-06-22T23:15:09.338Z,87.70
2018-06-22T23:17:45.776Z,88.20
2018-06-22T23:20:22.511Z,87.80
2018-06-22T23:23:18.333Z,87.40
2018-06-22T23:25:55.393Z,87.30
2018-06-22T23:31:10.381Z,86.80
2018-06-22T23:33:48.331Z,87.10
2018-06-22T23:36:26.012Z,85.90
2018-06-22T23:39:03.101Z,85.60
2018-06-22T23:41:40.039Z,86.20
2018-06-22T23:44:17.438Z,86.20
2018-06-22T23:46:54.728Z,86.40
2018-06-22T23:49:32.562Z,85.60
2018-06-22T23:52:09.813Z,85.40
2018-06-22T23:54:47.301Z,85.40
2018-06-22T23:57:24.377Z,86.60
